createdAt,value
2023-05-17T00:01:28.588Z,4.00
2023-05-17T00:03:56.633Z,4.63
2023-05-17T00:06:24.718Z,4.50
2023-05-17T00:08:52.719Z,4.33
2023-05-17T00:11:20.678Z,4.97
2023-05-17T00:13:48.647Z,3.87
2023-05-17T00:16:16.631Z,4.60
2023-05-17T00:18:46.222Z,5.00
2023-05-17T00:21:14.347Z,4.80
2023-05-17T00:23:42.485Z,4.57
2023-05-17T00:26:10.472Z,4.33
2023-05-17T00:28:38.450Z,4.37
2023-05-17T00:31:06.463Z,4.30
2023-05-17T00:33:34.480Z,5.10
2023-05-17T00:36:03.910Z,4.40
2023-05-17T00:38:31.849Z,4.40
2023-05-17T00:40:59.894Z,4.40
2023-05-17T00:43:27.876Z,4.13
2023-05-17T00:45:55.854Z,4.40
2023-05-17T00:48:25.727Z,4.43
2023-05-17T00:50:53.979Z,4.50
2023-05-17T00:53:23.355Z,4.57
2023-05-17T00:55:51.486Z,4.73
2023-05-17T00:58:19.477Z,4.23
2023-05-17T01:00:47.441Z,4.20
2023-05-17T01:03:18.801Z,4.37
2023-05-17T01:05:49.758Z,4.07
2023-05-17T01:08:17.802Z,4.23
2023-05-17T01:10:59.249Z,4.10
2023-05-17T01:13:29.297Z,4.40
2023-05-17T01:16:00.265Z,4.67
2023-05-17T01:18:31.661Z,4.80
2023-05-17T01:20:59.987Z,4.50
2023-05-17T01:23:42.230Z,4.30
2023-05-17T01:26:16.237Z,4.17
2023-05-17T01:28:47.388Z,4.10
2023-05-17T01:31:15.345Z,4.60
2023-05-17T01:33:43.462Z,4.03
2023-05-17T01:36:11.504Z,4.40
2023-05-17T01:38:39.470Z,4.57
2023-05-17T01:41:11.994Z,4.40
2023-05-17T01:43:43.167Z,4.27
2023-05-17T01:46:15.191Z,3.83
2023-05-17T01:48:46.102Z,4.40
2023-05-17T01:51:16.110Z,4.43
2023-05-17T01:53:46.852Z,3.93
2023-05-17T01:56:17.714Z,4.53
2023-05-17T01:58:46.833Z,4.43
2023-05-17T02:01:16.351Z,4.60
2023-05-17T02:03:44.260Z,4.37
2023-05-17T02:06:12.813Z,4.27
2023-05-17T02:08:40.837Z,3.83
2023-05-17T02:11:08.871Z,4.30
2023-05-17T02:13:36.770Z,4.57
2023-05-17T02:16:04.872Z,4.47
2023-05-17T02:18:35.501Z,5.07
2023-05-17T02:21:03.657Z,4.97
2023-05-17T02:23:31.600Z,5.03
2023-05-17T02:25:59.498Z,5.30
2023-05-17T02:28:28.366Z,5.17
2023-05-17T02:30:56.618Z,4.90
2023-05-17T02:33:24.703Z,4.50
2023-05-17T02:35:54.101Z,4.63
2023-05-17T02:38:22.065Z,4.50
2023-05-17T02:40:49.935Z,5.17
2023-05-17T02:43:17.840Z,4.90
2023-05-17T02:45:45.835Z,5.20
2023-05-17T02:48:13.758Z,5.20
2023-05-17T02:50:41.661Z,5.40
2023-05-17T02:53:11.494Z,4.80
2023-05-17T02:55:45.492Z,4.90
2023-05-17T02:58:13.431Z,5.20
2023-05-17T03:00:41.322Z,5.00
2023-05-17T03:03:09.346Z,5.00
2023-05-17T03:05:37.260Z,4.83
2023-05-17T03:08:05.296Z,5.77
2023-05-17T03:10:34.764Z,5.27
2023-05-17T03:13:02.946Z,5.27
2023-05-17T03:15:31.005Z,6.27
2023-05-17T03:20:27.118Z,5.73
2023-05-17T03:22:55.051Z,6.50
2023-05-17T03:25:23.031Z,6.00
2023-05-17T03:27:52.380Z,5.60
2023-05-17T03:30:20.474Z,5.47
2023-05-17T03:32:48.511Z,4.77
2023-05-17T03:35:16.434Z,5.33
2023-05-17T03:37:44.411Z,5.27
2023-05-17T03:40:12.872Z,5.30
2023-05-17T03:42:41.543Z,5.20
2023-05-17T03:45:11.762Z,5.47
2023-05-17T03:47:39.804Z,4.37
2023-05-17T03:50:08.916Z,5.10
2023-05-17T03:52:36.865Z,4.50
2023-05-17T03:55:05.238Z,5.00
2023-05-17T03:57:33.150Z,4.87
2023-05-17T04:00:01.062Z,4.63
2023-05-17T04:02:30.345Z,5.00
2023-05-17T04:04:58.276Z,4.37
2023-05-17T04:07:26.284Z,5.33
2023-05-17T04:09:54.476Z,4.87
2023-05-17T04:12:22.411Z,4.53
2023-05-17T04:14:50.402Z,4.70
2023-05-17T04:17:18.316Z,5.37
2023-05-17T04:19:47.700Z,4.60
2023-05-17T04:22:15.617Z,4.90
2023-05-17T04:24:43.863Z,4.63
2023-05-17T04:27:11.750Z,4.57
2023-05-17T04:29:40.979Z,4.60
2023-05-17T04:32:09.940Z,4.67
2023-05-17T04:34:37.819Z,4.60
2023-05-17T04:37:07.607Z,4.80
2023-05-17T04:39:35.835Z,4.90
2023-05-17T04:42:03.890Z,4.90
2023-05-17T04:44:31.776Z,4.50
2023-05-17T04:46:59.667Z,4.73
2023-05-17T04:49:28.406Z,4.50
2023-05-17T04:51:56.531Z,4.70
2023-05-17T04:54:26.075Z,4.80
2023-05-17T04:56:56.837Z,4.37
2023-05-17T04:59:25.161Z,4.37
2023-05-17T05:01:53.053Z,4.80
2023-05-17T05:04:21.197Z,5.13
2023-05-17T05:06:49.420Z,4.67
2023-05-17T05:09:17.522Z,4.17
2023-05-17T05:11:46.969Z,5.03
2023-05-17T05:14:15.212Z,4.60
2023-05-17T05:16:47.831Z,4.60
2023-05-17T05:19:16.959Z,4.87
2023-05-17T05:21:51.935Z,4.97
2023-05-17T05:24:20.120Z,4.60
2023-05-17T05:26:52.100Z,4.17
2023-05-17T05:29:20.030Z,4.67
2023-05-17T05:31:48.022Z,4.37
2023-05-17T05:34:15.915Z,4.37
2023-05-17T05:36:44.181Z,4.83
2023-05-17T05:39:12.670Z,4.30
2023-05-17T05:41:40.612Z,4.83
2023-05-17T05:44:10.007Z,4.43
2023-05-17T05:46:37.908Z,4.17
2023-05-17T05:49:05.887Z,5.40
2023-05-17T05:51:34.143Z,4.57
2023-05-17T05:54:02.180Z,4.67
2023-05-17T05:56:30.082Z,4.33
2023-05-17T05:58:58.600Z,4.70
2023-05-17T06:01:28.893Z,4.70
2023-05-17T06:03:56.953Z,5.47
2023-05-17T06:06:24.926Z,4.97
2023-05-17T06:08:59.444Z,5.20
2023-05-17T06:11:27.731Z,4.73
2023-05-17T06:13:55.830Z,4.70
2023-05-17T06:16:23.839Z,4.90
2023-05-17T06:18:53.199Z,4.97
2023-05-17T06:21:21.363Z,4.47
2023-05-17T06:23:49.280Z,4.93
2023-05-17T06:26:17.321Z,4.87
2023-05-17T06:28:45.205Z,5.07
2023-05-17T06:31:13.219Z,4.80
2023-05-17T06:33:41.390Z,5.03
2023-05-17T06:36:11.134Z,5.50
2023-05-17T06:38:39.052Z,5.40
2023-05-17T06:41:07.130Z,4.87
2023-05-17T06:43:36.487Z,4.87
2023-05-17T06:46:05.733Z,4.93
2023-05-17T06:48:33.761Z,5.37
2023-05-17T06:51:01.886Z,5.10
2023-05-17T06:53:31.222Z,5.30
2023-05-17T06:55:59.476Z,4.90
2023-05-17T06:58:27.747Z,5.40
2023-05-17T07:00:55.896Z,5.77
2023-05-17T07:03:24.059Z,4.70
2023-05-17T07:05:52.385Z,4.90
2023-05-17T07:08:21.164Z,4.97
2023-05-17T07:10:53.304Z,4.90
2023-05-17T07:13:21.682Z,4.40
2023-05-17T07:15:49.979Z,4.53
2023-05-17T07:18:18.188Z,4.70
2023-05-17T07:20:46.211Z,4.57
2023-05-17T07:23:14.729Z,4.57
2023-05-17T07:25:43.274Z,4.77
2023-05-17T07:28:12.940Z,5.27
2023-05-17T07:30:46.269Z,4.90
2023-05-17T07:33:15.181Z,4.23
2023-05-17T07:35:43.188Z,4.53
2023-05-17T07:38:11.835Z,5.07
2023-05-17T07:40:39.962Z,4.30
2023-05-17T07:43:08.037Z,4.40
2023-05-17T07:45:37.780Z,4.23
2023-05-17T07:48:06.384Z,4.90
2023-05-17T07:50:34.501Z,4.63
2023-05-17T07:53:02.879Z,5.47
2023-05-17T07:55:31.389Z,4.80
2023-05-17T07:58:01.206Z,4.87
2023-05-17T08:00:29.520Z,4.50
2023-05-17T08:02:59.142Z,4.97
2023-05-17T08:05:27.788Z,4.70
2023-05-17T08:07:59.608Z,4.63
2023-05-17T08:10:28.107Z,4.83
2023-05-17T08:12:56.392Z,4.87
2023-05-17T08:15:24.455Z,4.47
2023-05-17T08:17:52.948Z,4.50
2023-05-17T08:20:22.799Z,4.20
2023-05-17T08:22:51.069Z,4.20
2023-05-17T08:25:19.274Z,5.10
2023-05-17T08:27:47.419Z,4.27
2023-05-17T08:30:25.293Z,4.83
2023-05-17T08:32:57.233Z,4.50
2023-05-17T08:35:29.115Z,4.90
2023-05-17T08:37:57.306Z,4.23
2023-05-17T08:40:25.543Z,4.03
2023-05-17T08:42:53.938Z,4.77
2023-05-17T08:45:24.645Z,4.93
2023-05-17T08:47:54.575Z,4.00
2023-05-17T08:50:22.708Z,4.27
2023-05-17T08:52:52.766Z,3.90
2023-05-17T08:55:20.925Z,4.30
2023-05-17T08:57:49.635Z,3.50
2023-05-17T09:00:19.038Z,3.87
2023-05-17T09:02:47.434Z,3.50
2023-05-17T09:05:16.597Z,3.70
2023-05-17T09:07:45.128Z,3.77
2023-05-17T09:10:17.580Z,3.93
2023-05-17T09:12:45.966Z,3.80
2023-05-17T09:15:16.351Z,4.10
2023-05-17T09:17:44.496Z,3.77
2023-05-17T09:20:12.935Z,4.17
2023-05-17T09:22:41.535Z,4.03
2023-05-17T09:25:11.744Z,4.23
2023-05-17T09:27:41.600Z,3.50
2023-05-17T09:30:16.267Z,3.30
2023-05-17T09:35:29.680Z,3.33
2023-05-17T09:37:58.406Z,3.40
2023-05-17T09:40:26.831Z,3.07
2023-05-17T09:42:56.220Z,3.40
2023-05-17T09:45:24.760Z,3.27
2023-05-17T09:47:53.101Z,3.30
2023-05-17T09:50:22.041Z,2.87
2023-05-17T09:52:51.906Z,3.70
2023-05-17T09:55:20.181Z,3.43
2023-05-17T09:57:48.757Z,3.27
2023-05-17T10:00:19.735Z,3.40
2023-05-17T10:02:48.243Z,3.50
2023-05-17T10:05:16.718Z,3.33
2023-05-17T10:07:44.945Z,3.30
2023-05-17T10:10:16.411Z,3.17
2023-05-17T10:12:44.362Z,3.10
2023-05-17T10:15:12.410Z,3.77
2023-05-17T10:17:43.955Z,3.17
2023-05-17T10:20:14.506Z,2.90
2023-05-17T10:22:42.579Z,3.27
2023-05-17T10:25:11.564Z,3.20
2023-05-17T10:27:39.504Z,3.47
2023-05-17T10:30:09.231Z,3.33
2023-05-17T10:32:37.276Z,2.97
2023-05-17T10:35:12.057Z,3.13
2023-05-17T10:37:41.227Z,3.30
2023-05-17T10:40:14.447Z,3.30
2023-05-17T10:42:42.705Z,3.30
2023-05-17T10:45:11.711Z,3.57
2023-05-17T10:47:44.302Z,3.10
2023-05-17T10:50:17.251Z,3.70
2023-05-17T10:52:49.062Z,3.33
2023-05-17T10:55:20.305Z,3.47
2023-05-17T10:58:18.301Z,3.40
2023-05-17T11:00:48.330Z,3.50
2023-05-17T11:03:17.975Z,3.67
2023-05-17T11:06:23.306Z,3.30
2023-05-17T11:09:09.567Z,3.10
2023-05-17T11:11:37.647Z,3.80
2023-05-17T11:14:06.373Z,3.55
2023-05-17T11:16:37.085Z,3.30
2023-05-17T11:19:08.662Z,3.40
2023-05-17T11:21:39.538Z,3.40
2023-05-17T11:24:08.774Z,3.47
2023-05-17T11:26:38.822Z,3.53
2023-05-17T11:29:09.102Z,3.93
2023-05-17T11:31:37.662Z,3.60
2023-05-17T11:34:05.810Z,3.40
2023-05-17T11:36:35.385Z,3.60
2023-05-17T11:39:14.774Z,3.40
2023-05-17T11:41:49.672Z,3.40
2023-05-17T11:44:19.410Z,3.25
2023-05-17T11:46:47.327Z,2.97
2023-05-17T11:49:34.052Z,3.17
2023-05-17T11:52:04.040Z,3.55
2023-05-17T11:54:33.634Z,3.05
2023-05-17T11:57:02.926Z,3.17
2023-05-17T11:59:31.407Z,3.45
2023-05-17T12:02:01.280Z,2.90
2023-05-17T12:04:30.622Z,3.25
2023-05-17T12:07:04.024Z,4.30
2023-05-17T12:09:33.295Z,5.03
2023-05-17T12:12:05.188Z,4.20
2023-05-17T12:14:34.097Z,4.65
2023-05-17T12:17:02.647Z,4.32
2023-05-17T12:19:33.929Z,4.10
2023-05-17T12:22:12.592Z,4.40
2023-05-17T12:24:43.147Z,3.90
2023-05-17T12:27:11.658Z,4.57
2023-05-17T12:29:41.291Z,4.30
2023-05-17T12:32:10.008Z,4.45
2023-05-17T12:34:38.290Z,4.28
2023-05-17T12:37:10.436Z,3.80
2023-05-17T12:39:38.654Z,5.00
2023-05-17T12:42:08.772Z,4.38
2023-05-17T12:44:36.805Z,4.70
2023-05-17T12:47:05.075Z,4.00
2023-05-17T12:49:33.027Z,4.20
2023-05-17T12:52:08.226Z,4.03
2023-05-17T12:54:39.110Z,4.45
2023-05-17T12:57:16.248Z,5.10
2023-05-17T12:59:48.999Z,4.15
2023-05-17T13:02:20.703Z,3.92
2023-05-17T13:04:48.839Z,4.05
2023-05-17T13:07:22.839Z,3.67
2023-05-17T13:21:38.134Z,4.93
2023-05-17T13:24:06.243Z,5.22
2023-05-17T13:26:34.094Z,5.32
2023-05-17T13:29:01.931Z,4.55
2023-05-17T13:31:29.803Z,4.93
2023-05-17T13:33:57.751Z,4.25
2023-05-17T13:36:25.758Z,4.40
2023-05-17T13:38:56.769Z,4.05
2023-05-17T13:41:24.977Z,3.65
2023-05-17T13:43:52.816Z,3.95
2023-05-17T13:46:20.707Z,8.13
2023-05-17T13:48:48.808Z,5.20
2023-05-17T13:51:16.723Z,4.28
2023-05-17T13:53:44.621Z,4.20
2023-05-17T13:56:13.818Z,4.30
2023-05-17T13:58:41.634Z,4.10
2023-05-17T14:01:09.523Z,3.90
2023-05-17T14:03:37.490Z,4.25
2023-05-17T14:06:06.496Z,4.65
2023-05-17T14:08:36.823Z,3.92
2023-05-17T14:11:05.303Z,4.05
2023-05-17T14:13:34.977Z,3.70
2023-05-17T14:16:02.933Z,3.97
2023-05-17T14:18:32.926Z,4.30
2023-05-17T14:21:01.287Z,4.15
2023-05-17T14:23:29.240Z,4.18
2023-05-17T14:25:57.794Z,3.33
2023-05-17T14:28:25.909Z,4.00
2023-05-17T14:30:55.210Z,4.07
2023-05-17T14:33:23.257Z,4.40
2023-05-17T14:35:51.753Z,3.70
2023-05-17T14:38:20.485Z,3.63
2023-05-17T14:40:48.399Z,4.10
2023-05-17T14:43:16.451Z,3.53
2023-05-17T14:45:44.416Z,4.05
2023-05-17T14:48:13.798Z,3.55
2023-05-17T14:50:41.863Z,3.80
2023-05-17T14:53:09.840Z,3.70
2023-05-17T14:55:38.200Z,4.03
2023-05-17T14:58:07.061Z,3.65
2023-05-17T15:00:36.259Z,3.58
2023-05-17T15:03:05.048Z,3.55
2023-05-17T15:05:35.057Z,3.53
2023-05-17T15:08:03.780Z,3.53
2023-05-17T15:10:32.838Z,3.70
2023-05-17T15:13:01.804Z,3.45
2023-05-17T15:15:30.896Z,3.58
2023-05-17T15:18:00.493Z,3.40
2023-05-17T15:20:29.697Z,3.35
2023-05-17T15:22:59.995Z,2.92
2023-05-17T15:25:28.992Z,3.47
2023-05-17T15:27:57.919Z,3.28
2023-05-17T15:30:27.907Z,3.10
2023-05-17T15:32:57.587Z,3.08
2023-05-17T15:35:27.591Z,3.28
2023-05-17T15:37:56.769Z,3.10
2023-05-17T15:40:26.919Z,2.83
2023-05-17T15:42:55.714Z,3.15
2023-05-17T15:45:24.284Z,3.35
2023-05-17T15:47:53.895Z,3.13
2023-05-17T15:50:22.776Z,3.10
2023-05-17T15:52:54.802Z,2.92
2023-05-17T15:55:23.726Z,3.10
2023-05-17T15:57:53.976Z,2.90
2023-05-17T16:00:23.155Z,2.72
2023-05-17T16:02:51.344Z,3.00
2023-05-17T16:05:19.659Z,3.17
2023-05-17T16:07:48.261Z,3.45
2023-05-17T16:10:16.649Z,2.97
2023-05-17T16:12:45.063Z,2.97
2023-05-17T16:15:14.805Z,3.05
2023-05-17T16:17:42.892Z,3.05
2023-05-17T16:20:12.271Z,3.30
2023-05-17T16:22:43.341Z,3.30
2023-05-17T16:25:11.913Z,3.38
2023-05-17T16:27:39.967Z,3.05
2023-05-17T16:30:09.319Z,3.08
2023-05-17T16:32:38.680Z,3.13
2023-05-17T16:35:07.236Z,3.30
2023-05-17T16:37:35.171Z,2.90
2023-05-17T16:40:03.446Z,3.22
2023-05-17T16:42:31.558Z,3.17
2023-05-17T16:44:59.669Z,3.40
2023-05-17T16:47:28.088Z,3.47
2023-05-17T16:49:57.712Z,3.72
2023-05-17T16:52:25.847Z,3.80
2023-05-17T16:54:53.907Z,3.85
2023-05-17T16:57:21.873Z,4.00
2023-05-17T16:59:49.827Z,3.20
2023-05-17T17:02:17.859Z,3.65
2023-05-17T17:04:45.860Z,3.42
2023-05-17T17:07:15.171Z,3.55
2023-05-17T17:09:43.069Z,3.53
2023-05-17T17:12:23.640Z,3.65
2023-05-17T17:14:52.851Z,3.70
2023-05-17T17:17:20.810Z,3.40
2023-05-17T17:19:48.931Z,4.00
2023-05-17T17:22:18.298Z,3.72
2023-05-17T17:24:46.251Z,3.42
2023-05-17T17:27:14.155Z,3.42
2023-05-17T17:29:42.089Z,3.60
2023-05-17T17:32:10.177Z,3.55
2023-05-17T17:34:38.767Z,3.90
2023-05-17T17:37:07.037Z,3.97
2023-05-17T17:39:36.332Z,4.40
2023-05-17T17:42:04.369Z,4.18
2023-05-17T17:44:32.363Z,4.55
2023-05-17T17:47:00.418Z,4.28
2023-05-17T17:49:28.423Z,4.43
2023-05-17T17:51:58.068Z,4.78
2023-05-17T17:54:26.134Z,4.18
2023-05-17T17:56:55.953Z,4.13
2023-05-17T17:59:23.890Z,4.35
2023-05-17T18:01:51.900Z,4.00
2023-05-17T18:04:19.982Z,3.67
2023-05-17T18:06:48.564Z,3.88
2023-05-17T18:09:16.515Z,3.83
2023-05-17T18:11:44.403Z,4.47
2023-05-17T18:14:15.384Z,4.03
2023-05-17T18:16:43.407Z,3.70
2023-05-17T18:19:11.521Z,3.80
2023-05-17T18:21:39.466Z,4.07
2023-05-17T18:24:08.122Z,3.67
2023-05-17T18:26:36.100Z,3.60
2023-05-17T18:29:04.099Z,3.47
2023-05-17T18:31:33.457Z,3.70
2023-05-17T18:34:01.338Z,3.85
2023-05-17T18:36:29.298Z,3.53
2023-05-17T18:38:58.714Z,3.45
2023-05-17T18:41:27.125Z,3.78
2023-05-17T18:43:55.935Z,4.20
2023-05-17T18:46:23.868Z,3.85
2023-05-17T18:48:53.175Z,3.45
2023-05-17T18:51:21.102Z,3.88
2023-05-17T18:53:48.999Z,3.80
2023-05-17T18:56:22.699Z,4.33
2023-05-17T18:58:52.003Z,4.20
2023-05-17T19:01:20.055Z,4.13
2023-05-17T19:03:48.153Z,3.73
2023-05-17T19:06:17.865Z,4.17
2023-05-17T19:08:46.201Z,4.00
2023-05-17T19:11:14.246Z,4.33
2023-05-17T19:13:42.277Z,3.87
2023-05-17T19:16:10.198Z,4.13
2023-05-17T19:18:38.136Z,4.30
2023-05-17T19:21:06.161Z,3.80
2023-05-17T19:23:36.082Z,4.27
2023-05-17T19:26:04.054Z,4.47
2023-05-17T19:28:35.851Z,4.17
2023-05-17T19:31:03.873Z,4.27
2023-05-17T19:33:34.098Z,4.40
2023-05-17T19:36:02.291Z,4.57
2023-05-17T19:38:30.155Z,4.77
2023-05-17T19:40:59.734Z,4.83
2023-05-17T19:43:28.243Z,4.67
2023-05-17T19:45:56.187Z,4.87
2023-05-17T19:48:25.234Z,4.77
2023-05-17T19:50:56.136Z,4.60
2023-05-17T19:53:24.759Z,4.57
2023-05-17T19:55:54.794Z,4.50
2023-05-17T19:58:25.421Z,4.93
2023-05-17T20:00:53.363Z,5.60
2023-05-17T20:03:22.475Z,5.03
2023-05-17T20:05:50.921Z,5.10
2023-05-17T20:08:18.843Z,5.50
2023-05-17T20:10:46.834Z,5.10
2023-05-17T20:13:14.808Z,5.73
2023-05-17T20:15:44.084Z,5.53
2023-05-17T20:18:12.952Z,5.33
2023-05-17T20:20:40.833Z,6.00
2023-05-17T20:23:08.792Z,6.07
2023-05-17T20:25:38.228Z,6.03
2023-05-17T20:28:06.383Z,6.37
2023-05-17T20:30:34.306Z,6.37
2023-05-17T20:33:03.758Z,5.90
2023-05-17T20:35:31.759Z,5.87
2023-05-17T20:37:59.630Z,6.53
2023-05-17T20:40:27.863Z,6.20
2023-05-17T20:42:56.559Z,6.00
2023-05-17T20:45:24.466Z,5.40
2023-05-17T20:47:52.684Z,6.20
2023-05-17T20:50:22.087Z,5.90
2023-05-17T20:52:50.041Z,6.17
2023-05-17T20:55:17.953Z,6.63
2023-05-17T20:57:46.359Z,6.33
2023-05-17T21:00:17.065Z,5.80
2023-05-17T21:02:45.081Z,6.63
2023-05-17T21:05:13.458Z,5.73
2023-05-17T21:07:42.773Z,6.37
2023-05-17T21:10:10.956Z,6.20
2023-05-17T21:12:38.873Z,5.90
2023-05-17T21:15:15.654Z,6.40
2023-05-17T21:17:44.847Z,6.53
2023-05-17T21:20:14.028Z,6.70
2023-05-17T21:22:43.332Z,6.30
2023-05-17T21:25:11.558Z,6.63
2023-05-17T21:27:39.702Z,5.70
2023-05-17T21:30:09.091Z,6.33
2023-05-17T21:32:37.091Z,6.77
2023-05-17T21:35:06.063Z,6.37
2023-05-17T21:37:33.977Z,6.27
2023-05-17T21:40:03.332Z,6.40
2023-05-17T21:42:31.242Z,6.30
2023-05-17T21:44:59.161Z,6.43
2023-05-17T21:47:27.112Z,6.43
2023-05-17T21:49:55.214Z,6.40
2023-05-17T21:52:23.137Z,6.10
2023-05-17T21:54:51.052Z,6.07
2023-05-17T21:57:21.227Z,6.57
2023-05-17T21:59:49.208Z,5.80
2023-05-17T22:02:17.342Z,8.13
2023-05-17T22:04:45.306Z,6.83
2023-05-17T22:07:14.097Z,6.70
2023-05-17T22:09:42.052Z,6.07
2023-05-17T22:12:12.216Z,6.37
2023-05-17T22:14:44.528Z,5.90
2023-05-17T22:17:12.468Z,5.90
2023-05-17T22:19:41.664Z,5.60
2023-05-17T22:22:10.202Z,5.50
2023-05-17T22:24:38.198Z,5.03
2023-05-17T22:27:06.372Z,5.60
2023-05-17T22:29:34.399Z,5.53
2023-05-17T22:32:03.788Z,5.30
2023-05-17T22:34:31.939Z,5.40
2023-05-17T22:36:59.960Z,5.67
2023-05-17T22:39:27.915Z,5.97
2023-05-17T22:41:55.844Z,5.33
2023-05-17T22:44:23.727Z,6.20
2023-05-17T22:46:51.752Z,5.57
2023-05-17T22:49:21.067Z,5.70
2023-05-17T22:51:48.955Z,4.97
2023-05-17T22:54:16.856Z,4.83
2023-05-17T22:56:44.784Z,5.07
2023-05-17T22:59:12.830Z,5.17
2023-05-17T23:01:40.923Z,5.23
2023-05-17T23:04:08.981Z,5.57
2023-05-17T23:06:38.396Z,5.47
2023-05-17T23:09:06.364Z,5.87
2023-05-17T23:11:35.496Z,6.10
2023-05-17T23:14:03.423Z,6.40
2023-05-17T23:16:31.409Z,5.37
2023-05-17T23:19:00.245Z,5.53
2023-05-17T23:21:28.194Z,5.53
2023-05-17T23:23:57.482Z,5.13
2023-05-17T23:26:25.582Z,5.03
2023-05-17T23:28:53.634Z,5.60
2023-05-17T23:31:21.733Z,5.90
2023-05-17T23:33:50.330Z,5.13
2023-05-17T23:36:18.333Z,5.50
2023-05-17T23:38:46.401Z,5.97
2023-05-17T23:41:18.202Z,6.00
2023-05-17T23:43:46.908Z,5.93
2023-05-17T23:46:19.961Z,5.80
2023-05-17T23:48:50.609Z,5.70
2023-05-17T23:51:19.874Z,5.90
2023-05-17T23:53:49.071Z,5.77
2023-05-17T23:56:18.624Z,5.90
2023-05-17T23:58:46.652Z,5.30
